Time;durP1;ratioP1;P1;durP2;ratioP2;P2;SDS_P1;SDS_P2;PMS_P1;PMS_P2;Temp;Humidity;BMP_temperature;BMP_pressure;BME280_temperature;BME280_humidity;BME280_pressure;Samples;Min_cycle;Max_cycle;Signal;HPM_P1;HPM_P2
2023/12/07 00:01:08;;;;;;;83.43;34.83;;;;;;;;;;5032445;28;20426;-82
2023/12/07 00:03:34;;;;;;;80.83;37.17;;;;;;;;;;5032006;28;20417;-87
2023/12/07 00:06:00;;;;;;;84.03;36.43;;;;;;;;;;5032553;28;20476;-84
2023/12/07 00:08:26;;;;;;;78.60;34.97;;;;;;;;;;5032248;28;20408;-84
2023/12/07 00:10:51;;;;;;;84.77;36.47;;;;;;;;;;5032538;28;20434;-83
2023/12/07 00:13:17;;;;;;;86.53;36.53;;;;;;;;;;5031995;28;20477;-83
2023/12/07 00:15:43;;;;;;;73.67;35.03;;;;;;;;;;5032308;28;20448;-82
2023/12/07 00:18:09;;;;;;;79.20;35.37;;;;;;;;;;5017308;28;20513;-83
2023/12/07 00:20:35;;;;;;;81.10;34.60;;;;;;;;;;5036386;28;20425;-81
2023/12/07 00:23:01;;;;;;;78.60;37.27;;;;;;;;;;5036071;28;20777;-85
2023/12/07 00:25:27;;;;;;;74.17;35.50;;;;;;;;;;5034393;28;20473;-83
2023/12/07 00:27:53;;;;;;;79.70;35.63;;;;;;;;;;5035310;28;20418;-83
2023/12/07 00:30:19;;;;;;;86.07;35.77;;;;;;;;;;5035301;28;20461;-84
2023/12/07 00:32:46;;;;;;;73.67;36.60;;;;;;;;;;5034294;28;20445;-83
2023/12/07 00:35:12;;;;;;;80.67;36.43;;;;;;;;;;5035304;28;20528;-82
2023/12/07 00:37:40;;;;;;;72.47;34.80;;;;;;;;;;5035710;28;20833;-84
2023/12/07 00:40:07;;;;;;;80.03;33.93;;;;;;;;;;5036061;28;20425;-81
2023/12/07 00:42:34;;;;;;;68.53;34.27;;;;;;;;;;5035901;28;20426;-83
2023/12/07 00:45:00;;;;;;;65.43;33.20;;;;;;;;;;5017482;28;20476;-81
2023/12/07 00:47:26;;;;;;;74.10;34.30;;;;;;;;;;5036185;28;20764;-83
2023/12/07 00:49:52;;;;;;;74.70;35.50;;;;;;;;;;5020420;28;20941;-84
2023/12/07 00:52:18;;;;;;;75.90;35.27;;;;;;;;;;5046913;28;20411;-85
2023/12/07 00:54:44;;;;;;;67.63;35.30;;;;;;;;;;5036043;28;21025;-84
2023/12/07 00:57:10;;;;;;;68.10;36.43;;;;;;;;;;5017743;28;20929;-82
2023/12/07 00:59:38;;;;;;;78.67;36.37;;;;;;;;;;5035625;28;20408;-85
2023/12/07 01:02:07;;;;;;;76.47;34.13;;;;;;;;;;5035589;28;20409;-85
2023/12/07 01:04:34;;;;;;;72.70;34.30;;;;;;;;;;5035272;28;20822;-83
2023/12/07 01:07:00;;;;;;;68.33;34.33;;;;;;;;;;5035150;28;20418;-82
2023/12/07 01:09:26;;;;;;;62.63;31.40;;;;;;;;;;5035528;28;20434;-83
2023/12/07 01:11:52;;;;;;;76.77;32.60;;;;;;;;;;5104019;22;20427;-85
2023/12/07 01:14:18;;;;;;;71.77;34.47;;;;;;;;;;5054954;28;20829;-82
2023/12/07 01:16:44;;;;;;;72.73;33.63;;;;;;;;;;5055188;28;20518;-83
2023/12/07 01:19:14;;;;;;;65.80;32.33;;;;;;;;;;5054846;28;20466;-84
2023/12/07 01:21:39;;;;;;;67.00;32.07;;;;;;;;;;5055242;28;20408;-80
2023/12/07 01:24:05;;;;;;;66.50;33.13;;;;;;;;;;5055053;28;20420;-82
2023/12/07 01:26:32;;;;;;;71.03;34.67;;;;;;;;;;5055055;28;20991;-81
2023/12/07 01:28:57;;;;;;;66.93;32.13;;;;;;;;;;5054901;28;20417;-84
2023/12/07 01:31:23;;;;;;;67.13;31.27;;;;;;;;;;5055170;28;20418;-85
2023/12/07 01:33:49;;;;;;;58.77;30.10;;;;;;;;;;5054354;28;20782;-81
2023/12/07 01:36:15;;;;;;;70.50;33.13;;;;;;;;;;5037045;28;20485;-85
2023/12/07 01:38:42;;;;;;;68.43;31.40;;;;;;;;;;5054680;28;20435;-80
2023/12/07 01:41:08;;;;;;;68.93;33.23;;;;;;;;;;5054777;28;20507;-82
2023/12/07 01:43:34;;;;;;;66.50;33.40;;;;;;;;;;5054820;28;20467;-82
2023/12/07 01:46:00;;;;;;;64.33;33.60;;;;;;;;;;5054533;28;20514;-82
2023/12/07 01:48:26;;;;;;;58.83;31.20;;;;;;;;;;5053503;28;20423;-84
2023/12/07 01:50:54;;;;;;;68.80;31.93;;;;;;;;;;5054677;28;20842;-81
2023/12/07 01:53:21;;;;;;;67.70;31.03;;;;;;;;;;5054318;28;20840;-81
2023/12/07 01:55:48;;;;;;;63.23;31.33;;;;;;;;;;5054210;28;20414;-80
2023/12/07 01:58:14;;;;;;;64.60;30.90;;;;;;;;;;5054125;28;20500;-77
2023/12/07 02:00:40;;;;;;;70.30;34.50;;;;;;;;;;5054240;28;20404;-77
2023/12/07 02:03:06;;;;;;;62.80;30.90;;;;;;;;;;5054160;28;20409;-78
2023/12/07 02:05:33;;;;;;;65.50;31.87;;;;;;;;;;5054303;28;20466;-81
2023/12/07 02:07:59;;;;;;;67.10;31.63;;;;;;;;;;5054145;28;20422;-79
2023/12/07 02:10:25;;;;;;;63.70;31.67;;;;;;;;;;5054171;28;20858;-78
2023/12/07 02:12:52;;;;;;;57.43;27.80;;;;;;;;;;5054066;28;20448;-82
2023/12/07 02:15:21;;;;;;;53.87;30.23;;;;;;;;;;5054349;28;20415;-82
2023/12/07 02:17:47;;;;;;;58.87;34.63;;;;;;;;;;5035905;28;20508;-78
2023/12/07 02:20:17;;;;;;;55.70;31.13;;;;;;;;;;5052602;28;20512;-78
2023/12/07 02:22:44;;;;;;;61.57;30.30;;;;;;;;;;5034348;28;20418;-78
2023/12/07 02:25:11;;;;;;;64.20;30.53;;;;;;;;;;5034307;28;20496;-82
2023/12/07 02:27:38;;;;;;;66.47;31.70;;;;;;;;;;5052179;28;20451;-78
2023/12/07 02:30:04;;;;;;;62.17;32.80;;;;;;;;;;5053873;28;20451;-78
2023/12/07 02:32:30;;;;;;;59.60;31.53;;;;;;;;;;5053453;28;20495;-82
2023/12/07 02:34:56;;;;;;;64.13;31.60;;;;;;;;;;5053766;28;20509;-82
2023/12/07 02:37:22;;;;;;;64.90;32.17;;;;;;;;;;5053721;28;20412;-80
2023/12/07 02:39:49;;;;;;;59.43;29.90;;;;;;;;;;5052999;28;20831;-78
2023/12/07 02:42:16;;;;;;;62.93;32.37;;;;;;;;;;5053743;28;20768;-77
2023/12/07 02:44:42;;;;;;;65.07;31.97;;;;;;;;;;5053233;28;20496;-80
2023/12/07 02:47:08;;;;;;;62.00;33.57;;;;;;;;;;5053615;28;20457;-80
2023/12/07 02:49:34;;;;;;;74.07;32.97;;;;;;;;;;5053104;28;20910;-81
2023/12/07 02:52:00;;;;;;;62.70;31.03;;;;;;;;;;5053504;28;20509;-78
2023/12/07 02:54:26;;;;;;;64.90;32.70;;;;;;;;;;5053487;28;20500;-78
2023/12/07 02:56:52;;;;;;;62.73;32.00;;;;;;;;;;5053481;28;20499;-81
2023/12/07 02:59:18;;;;;;;59.77;29.73;;;;;;;;;;5053308;28;20411;-79
2023/12/07 03:01:44;;;;;;;59.97;32.77;;;;;;;;;;5053192;28;20416;-82
2023/12/07 03:04:10;;;;;;;59.43;32.60;;;;;;;;;;5052916;28;20785;-77
2023/12/07 03:06:35;;;;;;;63.57;32.50;;;;;;;;;;5053131;28;20520;-78
2023/12/07 03:09:01;;;;;;;53.83;29.80;;;;;;;;;;5053232;28;20413;-81
2023/12/07 03:11:27;;;;;;;58.23;30.93;;;;;;;;;;5053047;28;20429;-78
2023/12/07 03:13:53;;;;;;;52.90;27.90;;;;;;;;;;5052680;28;20457;-80
2023/12/07 03:16:19;;;;;;;55.77;31.10;;;;;;;;;;5052690;28;20418;-82
2023/12/07 03:18:45;;;;;;;51.07;28.17;;;;;;;;;;5052690;28;20416;-78
2023/12/07 03:21:11;;;;;;;54.10;27.60;;;;;;;;;;5035105;28;20415;-79
2023/12/07 03:23:37;;;;;;;49.87;26.23;;;;;;;;;;5052862;28;20412;-81
2023/12/07 03:26:03;;;;;;;51.30;27.83;;;;;;;;;;5052879;28;20570;-79
2023/12/07 03:28:29;;;;;;;52.03;28.63;;;;;;;;;;5052932;28;20454;-81
2023/12/07 03:30:54;;;;;;;55.80;27.50;;;;;;;;;;5035124;28;20430;-79
2023/12/07 03:33:20;;;;;;;44.57;23.13;;;;;;;;;;5052392;28;20417;-81
2023/12/07 03:35:46;;;;;;;44.17;25.23;;;;;;;;;;5052707;28;20427;-81
2023/12/07 03:38:12;;;;;;;45.57;26.70;;;;;;;;;;5052731;28;20403;-78
2023/12/07 03:40:38;;;;;;;53.03;27.20;;;;;;;;;;5052739;28;20415;-81
2023/12/07 03:43:04;;;;;;;52.43;27.23;;;;;;;;;;5052400;28;20408;-78
2023/12/07 03:45:30;;;;;;;44.50;27.60;;;;;;;;;;5052400;28;20471;-81
2023/12/07 03:47:56;;;;;;;48.93;26.27;;;;;;;;;;5052201;28;20408;-77
2023/12/07 03:50:22;;;;;;;50.30;25.40;;;;;;;;;;5052541;28;20415;-81
2023/12/07 03:52:48;;;;;;;51.00;26.07;;;;;;;;;;5034786;28;20896;-78
2023/12/07 03:55:14;;;;;;;51.17;27.00;;;;;;;;;;5034711;28;20421;-78
2023/12/07 03:57:40;;;;;;;48.33;25.50;;;;;;;;;;5052447;28;20462;-81
2023/12/07 04:00:10;;;;;;;51.10;27.27;;;;;;;;;;5034526;28;20960;-81
2023/12/07 04:02:36;;;;;;;54.40;30.40;;;;;;;;;;5052092;28;20463;-82
2023/12/07 04:05:02;;;;;;;53.80;28.07;;;;;;;;;;5052328;28;20462;-77
2023/12/07 04:07:29;;;;;;;51.17;28.23;;;;;;;;;;5052317;28;20413;-77
2023/12/07 04:09:57;;;;;;;53.07;28.77;;;;;;;;;;5052524;28;20420;-78
2023/12/07 04:12:23;;;;;;;55.07;30.37;;;;;;;;;;5052184;28;20888;-79
2023/12/07 04:14:49;;;;;;;58.10;29.23;;;;;;;;;;5052316;28;20453;-78
2023/12/07 04:17:15;;;;;;;62.20;29.57;;;;;;;;;;5052000;28;20884;-81
2023/12/07 04:19:47;;;;;;;65.53;29.67;;;;;;;;;;5034480;28;20410;-81
2023/12/07 04:22:12;;;;;;;57.50;29.97;;;;;;;;;;5052280;28;20420;-79
2023/12/07 04:24:38;;;;;;;56.07;29.33;;;;;;;;;;5052192;28;20939;-79
2023/12/07 04:27:04;;;;;;;57.03;29.43;;;;;;;;;;5034337;28;20428;-80
2023/12/07 04:29:30;;;;;;;63.07;31.07;;;;;;;;;;5052187;28;20766;-80
2023/12/07 04:31:56;;;;;;;68.43;31.20;;;;;;;;;;5052021;28;20430;-81
2023/12/07 04:34:22;;;;;;;72.50;32.20;;;;;;;;;;5052200;28;20413;-81
2023/12/07 04:36:48;;;;;;;58.17;29.73;;;;;;;;;;5052184;28;20762;-82
2023/12/07 04:39:14;;;;;;;71.20;31.20;;;;;;;;;;5052030;28;20408;-81
2023/12/07 04:41:40;;;;;;;60.37;29.07;;;;;;;;;;5051907;28;20459;-79
2023/12/07 04:44:06;;;;;;;58.77;26.73;;;;;;;;;;5052133;28;20503;-80
2023/12/07 04:46:41;;;;;;;51.77;29.80;;;;;;;;;;5051977;28;20531;-82
2023/12/07 04:49:07;;;;;;;56.30;29.67;;;;;;;;;;5051627;28;20421;-79
2023/12/07 04:51:33;;;;;;;58.47;28.50;;;;;;;;;;5051937;28;20412;-79
2023/12/07 04:53:58;;;;;;;58.97;29.33;;;;;;;;;;5051900;28;20410;-81
2023/12/07 04:56:24;;;;;;;56.30;28.67;;;;;;;;;;5052116;28;20468;-79
2023/12/07 04:58:50;;;;;;;62.83;29.93;;;;;;;;;;5051954;28;20887;-79
2023/12/07 05:01:18;;;;;;;62.03;31.03;;;;;;;;;;5051943;28;20410;-79
2023/12/07 05:03:44;;;;;;;57.50;28.80;;;;;;;;;;5053844;28;20415;-82
2023/12/07 05:06:10;;;;;;;69.70;31.20;;;;;;;;;;5054786;28;20472;-83
2023/12/07 05:08:36;;;;;;;64.30;31.67;;;;;;;;;;5055249;28;20444;-79
2023/12/07 05:11:02;;;;;;;71.13;31.37;;;;;;;;;;5055459;28;20446;-82
2023/12/07 05:13:28;;;;;;;59.70;27.30;;;;;;;;;;5055145;28;20506;-82
2023/12/07 05:15:54;;;;;;;62.63;28.53;;;;;;;;;;5055344;28;20895;-80
2023/12/07 05:18:20;;;;;;;58.70;29.83;;;;;;;;;;5054985;28;20419;-81
2023/12/07 05:20:46;;;;;;;59.33;31.00;;;;;;;;;;5055201;28;20410;-80
2023/12/07 05:23:11;;;;;;;59.53;28.77;;;;;;;;;;5037074;28;21000;-82
2023/12/07 05:25:37;;;;;;;56.77;26.50;;;;;;;;;;5053378;28;20508;-79
2023/12/07 05:28:04;;;;;;;59.57;26.33;;;;;;;;;;5053550;28;20400;-82
2023/12/07 05:30:30;;;;;;;54.70;26.33;;;;;;;;;;5054871;28;20418;-80
2023/12/07 05:32:56;;;;;;;55.53;26.80;;;;;;;;;;5054466;28;20474;-82
2023/12/07 05:35:23;;;;;;;55.60;28.50;;;;;;;;;;5062143;28;20410;-82
2023/12/07 05:37:50;;;;;;;53.43;28.10;;;;;;;;;;5057409;28;20400;-78
2023/12/07 05:40:16;;;;;;;50.60;26.10;;;;;;;;;;5054077;28;20405;-79
2023/12/07 05:42:42;;;;;;;59.60;29.80;;;;;;;;;;5033579;28;20404;-81
2023/12/07 05:45:09;;;;;;;57.73;28.37;;;;;;;;;;5036656;28;20522;-79
2023/12/07 05:47:36;;;;;;;54.80;26.87;;;;;;;;;;5061436;28;20824;-77
2023/12/07 05:50:03;;;;;;;47.53;24.97;;;;;;;;;;5051778;28;20426;-78
2023/12/07 05:52:29;;;;;;;48.73;27.53;;;;;;;;;;5054616;28;20422;-81
2023/12/07 05:54:55;;;;;;;48.37;26.53;;;;;;;;;;5054503;28;20908;-78
2023/12/07 05:57:21;;;;;;;47.47;26.53;;;;;;;;;;5054435;28;20408;-78
2023/12/07 05:59:46;;;;;;;50.67;27.60;;;;;;;;;;5054317;28;20417;-78
2023/12/07 06:02:12;;;;;;;48.87;25.90;;;;;;;;;;5053997;28;20416;-79
2023/12/07 06:04:38;;;;;;;52.60;25.70;;;;;;;;;;5054191;28;20954;-81
2023/12/07 06:07:04;;;;;;;43.83;25.67;;;;;;;;;;5054243;28;20427;-79
2023/12/07 06:09:30;;;;;;;52.37;27.60;;;;;;;;;;5041302;28;20837;-77
2023/12/07 06:11:56;;;;;;;45.93;26.40;;;;;;;;;;5034097;28;20459;-79
2023/12/07 06:14:25;;;;;;;42.30;25.63;;;;;;;;;;5053045;28;20524;-80
2023/12/07 06:16:51;;;;;;;44.47;25.67;;;;;;;;;;5053790;28;20448;-78
2023/12/07 06:19:17;;;;;;;45.80;26.47;;;;;;;;;;5054021;28;20445;-79
2023/12/07 06:21:47;;;;;;;48.63;25.87;;;;;;;;;;5053913;28;20418;-80
2023/12/07 06:24:14;;;;;;;42.90;23.87;;;;;;;;;;5061066;28;20396;-81
2023/12/07 06:26:40;;;;;;;47.17;26.30;;;;;;;;;;5053457;28;20502;-82
2023/12/07 06:29:07;;;;;;;46.40;25.70;;;;;;;;;;5058912;28;20499;-82
2023/12/07 06:31:33;;;;;;;38.47;24.63;;;;;;;;;;5051561;28;20442;-81
2023/12/07 06:34:00;;;;;;;42.77;25.00;;;;;;;;;;5052857;28;20421;-78
2023/12/07 06:36:26;;;;;;;39.07;23.63;;;;;;;;;;5053685;28;20824;-84
2023/12/07 06:38:53;;;;;;;40.50;25.37;;;;;;;;;;5053289;28;20409;-79
2023/12/07 06:41:19;;;;;;;44.77;23.80;;;;;;;;;;5053506;28;20417;-79
2023/12/07 06:43:45;;;;;;;44.10;23.23;;;;;;;;;;5059680;28;20439;-77
2023/12/07 06:46:14;;;;;;;44.43;23.73;;;;;;;;;;5053295;28;20469;-78
2023/12/07 06:48:40;;;;;;;42.33;23.20;;;;;;;;;;5053054;28;20404;-79
2023/12/07 06:51:06;;;;;;;38.73;21.83;;;;;;;;;;5053277;28;20416;-78
2023/12/07 06:53:32;;;;;;;37.60;23.70;;;;;;;;;;5053382;28;20408;-77
2023/12/07 06:55:58;;;;;;;37.93;21.93;;;;;;;;;;5053134;28;20420;-79
2023/12/07 06:58:24;;;;;;;37.53;24.47;;;;;;;;;;5053169;28;20416;-77
2023/12/07 07:00:50;;;;;;;45.73;25.43;;;;;;;;;;5053203;28;20445;-81
2023/12/07 07:03:16;;;;;;;44.20;25.87;;;;;;;;;;5052913;28;20443;-79
2023/12/07 07:05:42;;;;;;;48.77;27.30;;;;;;;;;;5043370;28;20472;-79
2023/12/07 07:08:08;;;;;;;49.77;28.37;;;;;;;;;;5053361;28;20411;-78
2023/12/07 07:10:35;;;;;;;46.13;25.13;;;;;;;;;;5053022;28;20790;-78
2023/12/07 07:13:04;;;;;;;47.57;25.87;;;;;;;;;;5052482;28;20509;-81
2023/12/07 07:15:30;;;;;;;42.43;26.80;;;;;;;;;;5052949;28;20410;-78
2023/12/07 07:17:55;;;;;;;41.67;23.50;;;;;;;;;;5034536;28;20954;-81
2023/12/07 07:20:22;;;;;;;36.90;24.10;;;;;;;;;;5052715;28;20411;-80
2023/12/07 07:22:48;;;;;;;44.10;25.10;;;;;;;;;;5052715;28;20418;-78
2023/12/07 07:25:15;;;;;;;36.97;22.13;;;;;;;;;;5052410;28;20525;-78
2023/12/07 07:27:41;;;;;;;41.00;23.70;;;;;;;;;;5052829;28;20767;-80
2023/12/07 07:30:08;;;;;;;45.57;24.60;;;;;;;;;;5052228;28;20408;-82
2023/12/07 07:32:34;;;;;;;47.00;26.17;;;;;;;;;;5051607;28;20414;-83
2023/12/07 07:35:00;;;;;;;48.50;27.00;;;;;;;;;;5052164;28;20564;-80
2023/12/07 07:37:26;;;;;;;47.13;24.53;;;;;;;;;;5052607;28;20508;-79
2023/12/07 07:39:52;;;;;;;33.07;21.47;;;;;;;;;;5052570;28;20407;-78
2023/12/07 07:42:17;;;;;;;41.33;24.83;;;;;;;;;;5052335;28;20978;-79
2023/12/07 07:44:43;;;;;;;40.50;23.73;;;;;;;;;;5052402;28;20960;-79
2023/12/07 07:47:09;;;;;;;37.67;24.53;;;;;;;;;;5052122;28;20415;-83
2023/12/07 07:49:35;;;;;;;39.33;23.30;;;;;;;;;;5052292;28;20404;-79
2023/12/07 07:52:01;;;;;;;36.30;22.77;;;;;;;;;;5059431;28;20837;-78
2023/12/07 07:54:27;;;;;;;39.77;24.13;;;;;;;;;;5052389;28;20785;-78
2023/12/07 07:56:53;;;;;;;38.97;25.53;;;;;;;;;;5052420;28;20502;-78
2023/12/07 07:59:19;;;;;;;50.93;30.30;;;;;;;;;;5052448;28;20497;-78
2023/12/07 08:01:47;;;;;;;39.17;26.87;;;;;;;;;;5051917;28;20453;-77
2023/12/07 08:04:13;;;;;;;52.93;28.47;;;;;;;;;;5034385;28;20970;-77
2023/12/07 08:06:39;;;;;;;42.07;26.40;;;;;;;;;;5052202;28;20462;-76
2023/12/07 08:09:05;;;;;;;47.00;30.80;;;;;;;;;;5052319;28;20941;-80
2023/12/07 08:11:32;;;;;;;49.83;28.33;;;;;;;;;;5052074;28;20528;-79
2023/12/07 08:13:58;;;;;;;51.60;29.77;;;;;;;;;;5051446;28;20543;-78
2023/12/07 08:16:24;;;;;;;49.67;27.23;;;;;;;;;;5051774;28;20510;-80
2023/12/07 08:18:50;;;;;;;44.20;26.93;;;;;;;;;;5059328;28;20425;-82
2023/12/07 08:21:20;;;;;;;44.30;27.70;;;;;;;;;;5052148;28;20433;-78
2023/12/07 08:23:46;;;;;;;45.87;27.73;;;;;;;;;;5049905;28;20773;-82
2023/12/07 08:26:14;;;;;;;49.30;30.10;;;;;;;;;;5051999;28;20463;-78
2023/12/07 08:28:40;;;;;;;50.67;30.57;;;;;;;;;;5052057;28;20886;-79
2023/12/07 08:31:06;;;;;;;46.10;28.67;;;;;;;;;;5052008;28;20509;-83
2023/12/07 08:33:34;;;;;;;44.13;29.87;;;;;;;;;;5051618;28;20805;-78
2023/12/07 08:36:00;;;;;;;45.60;28.93;;;;;;;;;;5052007;28;20581;-82
2023/12/07 08:38:26;;;;;;;45.17;27.27;;;;;;;;;;5053985;28;20412;-77
2023/12/07 08:40:52;;;;;;;53.23;29.90;;;;;;;;;;5055789;28;20757;-79
2023/12/07 08:43:22;;;;;;;47.03;28.30;;;;;;;;;;5055813;28;20411;-78
2023/12/07 08:45:48;;;;;;;50.27;31.03;;;;;;;;;;5055648;28;20558;-81
2023/12/07 08:48:14;;;;;;;46.20;28.23;;;;;;;;;;5055268;28;20440;-82
2023/12/07 08:50:40;;;;;;;49.57;30.70;;;;;;;;;;5055559;28;20454;-79
2023/12/07 08:53:06;;;;;;;46.80;29.77;;;;;;;;;;5055199;28;20481;-79
2023/12/07 08:55:35;;;;;;;47.13;28.70;;;;;;;;;;5037656;28;20430;-80
2023/12/07 08:58:03;;;;;;;46.03;29.03;;;;;;;;;;5055411;28;20899;-80
2023/12/07 09:00:28;;;;;;;48.43;29.70;;;;;;;;;;5055458;28;20781;-81
2023/12/07 09:02:54;;;;;;;45.57;28.60;;;;;;;;;;5037209;28;20410;-81
2023/12/07 09:05:20;;;;;;;52.23;30.43;;;;;;;;;;5062370;28;20490;-80
2023/12/07 09:07:46;;;;;;;52.63;31.60;;;;;;;;;;5062623;28;20416;-78
2023/12/07 09:10:12;;;;;;;49.20;28.97;;;;;;;;;;5055244;28;20931;-78
2023/12/07 09:12:38;;;;;;;49.60;29.40;;;;;;;;;;5055144;28;20585;-78
2023/12/07 09:15:05;;;;;;;42.17;26.67;;;;;;;;;;5013522;28;20871;-78
2023/12/07 09:17:31;;;;;;;53.53;33.70;;;;;;;;;;5054778;28;20422;-78
2023/12/07 09:19:57;;;;;;;45.37;29.53;;;;;;;;;;5055164;28;20399;-78
2023/12/07 09:22:23;;;;;;;47.40;28.27;;;;;;;;;;5054945;28;20778;-78
2023/12/07 09:24:49;;;;;;;46.53;28.90;;;;;;;;;;5054916;28;20471;-81
2023/12/07 09:27:15;;;;;;;48.37;28.90;;;;;;;;;;5055421;28;20416;-78
2023/12/07 09:29:40;;;;;;;41.40;27.30;;;;;;;;;;5054205;28;20447;-78
2023/12/07 09:32:07;;;;;;;45.20;28.93;;;;;;;;;;5055043;28;20423;-78
2023/12/07 09:34:33;;;;;;;47.20;29.90;;;;;;;;;;5055401;28;20431;-78
2023/12/07 09:37:06;;;;;;;48.03;30.50;;;;;;;;;;5053577;28;20428;-79
2023/12/07 09:39:32;;;;;;;47.73;29.20;;;;;;;;;;5056000;28;20465;-79
2023/12/07 09:41:58;;;;;;;50.93;30.27;;;;;;;;;;5055158;28;20417;-79
2023/12/07 09:44:24;;;;;;;47.37;29.20;;;;;;;;;;5055166;28;21070;-78
2023/12/07 09:46:50;;;;;;;44.80;27.70;;;;;;;;;;5054727;28;20477;-79
2023/12/07 09:49:16;;;;;;;48.27;28.20;;;;;;;;;;5054857;28;20793;-80
2023/12/07 09:51:43;;;;;;;47.20;28.53;;;;;;;;;;5054755;28;20427;-80
2023/12/07 09:54:09;;;;;;;49.93;29.07;;;;;;;;;;5054840;28;20447;-79
2023/12/07 09:56:35;;;;;;;48.03;28.37;;;;;;;;;;5037097;28;20421;-82
2023/12/07 09:59:01;;;;;;;43.97;28.43;;;;;;;;;;5054483;28;20431;-78
2023/12/07 10:01:30;;;;;;;48.33;29.03;;;;;;;;;;5054339;28;20521;-82
2023/12/07 10:04:15;;;;;;;48.83;33.20;;;;;;;;;;5054741;28;20417;-80
2023/12/07 10:06:45;;;;;;;45.70;29.30;;;;;;;;;;5053444;28;20562;-80
2023/12/07 10:09:11;;;;;;;46.17;28.00;;;;;;;;;;5053106;28;20424;-81
2023/12/07 10:11:37;;;;;;;46.93;29.57;;;;;;;;;;5054617;28;20466;-82
2023/12/07 10:14:03;;;;;;;49.07;30.57;;;;;;;;;;5053592;28;20767;-81
2023/12/07 10:16:29;;;;;;;47.53;30.80;;;;;;;;;;5051485;28;20916;-81
2023/12/07 10:18:55;;;;;;;42.43;28.03;;;;;;;;;;5054135;28;21046;-83
2023/12/07 10:21:33;;;;;;;44.53;28.70;;;;;;;;;;5050920;28;20580;-80
2023/12/07 10:23:59;;;;;;;46.70;28.67;;;;;;;;;;5053981;28;20447;-75
2023/12/07 10:26:25;;;;;;;43.30;27.43;;;;;;;;;;5052516;28;20522;-76
2023/12/07 10:28:54;;;;;;;46.50;30.60;;;;;;;;;;5022471;28;21024;-76
2023/12/07 10:31:21;;;;;;;50.27;31.60;;;;;;;;;;5051005;28;20420;-76
2023/12/07 10:33:48;;;;;;;46.63;29.23;;;;;;;;;;5053019;28;20408;-77
2023/12/07 10:36:14;;;;;;;43.07;26.97;;;;;;;;;;5053730;28;20418;-76
2023/12/07 10:38:41;;;;;;;46.27;28.27;;;;;;;;;;5054069;28;20491;-79
2023/12/07 10:41:09;;;;;;;46.27;27.47;;;;;;;;;;5052828;28;20435;-77
2023/12/07 10:43:38;;;;;;;47.63;30.17;;;;;;;;;;5035960;28;20402;-79
2023/12/07 10:46:05;;;;;;;47.03;29.20;;;;;;;;;;5052276;28;20521;-78
2023/12/07 10:48:33;;;;;;;43.63;28.00;;;;;;;;;;5054062;28;20555;-78
2023/12/07 10:51:00;;;;;;;49.53;29.67;;;;;;;;;;5053883;28;20743;-79
2023/12/07 10:53:33;;;;;;;45.00;27.87;;;;;;;;;;5053784;28;20431;-78
2023/12/07 10:56:05;;;;;;;40.70;26.87;;;;;;;;;;5053764;28;20445;-78
2023/12/07 10:58:30;;;;;;;52.40;28.77;;;;;;;;;;5053839;28;20825;-78
2023/12/07 11:00:57;;;;;;;42.03;29.90;;;;;;;;;;5052739;28;20424;-78
2023/12/07 11:03:24;;;;;;;49.20;31.23;;;;;;;;;;5053614;28;20454;-78
2023/12/07 11:05:50;;;;;;;47.37;27.60;;;;;;;;;;5053486;28;21057;-78
2023/12/07 11:08:27;;;;;;;41.77;27.23;;;;;;;;;;5053514;28;20782;-79
2023/12/07 11:10:59;;;;;;;45.97;28.00;;;;;;;;;;5053647;28;20408;-79
2023/12/07 11:13:29;;;;;;;44.60;26.27;;;;;;;;;;5053444;28;20466;-79
2023/12/07 11:15:58;;;;;;;47.03;29.57;;;;;;;;;;5053102;28;20404;-79
2023/12/07 11:18:27;;;;;;;44.50;26.03;;;;;;;;;;5053139;28;20415;-77
2023/12/07 11:20:53;;;;;;;48.40;28.60;;;;;;;;;;5053339;28;20401;-77
2023/12/07 11:23:20;;;;;;;44.83;27.17;;;;;;;;;;5053329;28;20427;-78
2023/12/07 11:25:46;;;;;;;43.47;25.97;;;;;;;;;;5053183;28;21026;-77
2023/12/07 11:28:13;;;;;;;42.10;27.20;;;;;;;;;;5053285;28;20466;-77
2023/12/07 11:30:41;;;;;;;43.00;26.53;;;;;;;;;;5053272;28;20943;-77
2023/12/07 11:33:08;;;;;;;37.77;23.77;;;;;;;;;;5011668;28;20493;-77
2023/12/07 11:35:34;;;;;;;39.00;24.67;;;;;;;;;;5053139;28;20523;-78
2023/12/07 11:38:07;;;;;;;37.37;25.40;;;;;;;;;;5053117;28;20772;-77
2023/12/07 11:40:37;;;;;;;44.07;26.87;;;;;;;;;;5053200;28;20424;-77
2023/12/07 11:43:05;;;;;;;41.73;27.47;;;;;;;;;;5053059;28;20520;-77
2023/12/07 11:45:48;;;;;;;37.60;24.53;;;;;;;;;;5052961;28;20536;-80
2023/12/07 11:48:15;;;;;;;43.07;26.70;;;;;;;;;;5053086;28;20755;-78
2023/12/07 11:51:00;;;;;;;39.17;24.83;;;;;;;;;;5053000;28;20444;-77
2023/12/07 11:53:29;;;;;;;40.27;24.90;;;;;;;;;;5052966;28;20927;-77
2023/12/07 11:55:55;;;;;;;36.50;23.60;;;;;;;;;;5052962;28;20502;-77
2023/12/07 11:58:21;;;;;;;38.43;25.37;;;;;;;;;;5052903;28;20437;-77
2023/12/07 12:00:47;;;;;;;38.90;25.33;;;;;;;;;;5052556;28;20409;-76
2023/12/07 12:03:14;;;;;;;36.60;23.90;;;;;;;;;;5052789;28;20412;-78
2023/12/07 12:05:40;;;;;;;40.30;25.33;;;;;;;;;;5052622;28;20452;-76
2023/12/07 12:08:06;;;;;;;42.63;26.17;;;;;;;;;;5052775;28;20909;-75
2023/12/07 12:10:32;;;;;;;43.60;24.50;;;;;;;;;;5052795;28;20432;-77
2023/12/07 12:13:01;;;;;;;39.90;26.13;;;;;;;;;;5053807;28;20930;-77
2023/12/07 12:15:28;;;;;;;45.23;28.53;;;;;;;;;;5056831;28;20408;-77
2023/12/07 12:17:56;;;;;;;42.30;25.77;;;;;;;;;;5056506;28;20412;-77
2023/12/07 12:20:21;;;;;;;41.40;25.80;;;;;;;;;;5038895;28;20511;-77
2023/12/07 12:22:47;;;;;;;47.47;27.23;;;;;;;;;;5056682;28;20511;-77
2023/12/07 12:25:14;;;;;;;41.10;26.57;;;;;;;;;;5056578;28;20480;-77
2023/12/07 12:27:40;;;;;;;44.20;29.17;;;;;;;;;;5038750;28;20416;-77
2023/12/07 12:30:06;;;;;;;44.67;26.53;;;;;;;;;;5056561;28;20428;-77
2023/12/07 12:32:45;;;;;;;46.60;25.50;;;;;;;;;;5029958;28;20443;-77
2023/12/07 12:35:12;;;;;;;39.27;24.83;;;;;;;;;;5051046;28;20419;-77
2023/12/07 12:37:39;;;;;;;48.00;28.37;;;;;;;;;;5056386;28;20953;-77
2023/12/07 12:40:06;;;;;;;39.40;25.07;;;;;;;;;;5056442;28;20412;-77
2023/12/07 12:42:32;;;;;;;39.40;25.27;;;;;;;;;;5038521;28;20408;-77
2023/12/07 12:44:57;;;;;;;45.43;27.57;;;;;;;;;;5055673;28;21025;-77
2023/12/07 12:47:23;;;;;;;47.87;30.80;;;;;;;;;;5055558;28;20432;-77
2023/12/07 12:49:50;;;;;;;43.60;27.70;;;;;;;;;;5056121;28;20415;-77
2023/12/07 12:52:16;;;;;;;47.57;32.93;;;;;;;;;;5056162;28;20947;-77
2023/12/07 12:54:46;;;;;;;54.50;31.60;;;;;;;;;;5056182;28;20421;-77
2023/12/07 12:57:12;;;;;;;55.20;34.10;;;;;;;;;;5056117;28;20400;-77
2023/12/07 12:59:38;;;;;;;51.20;32.57;;;;;;;;;;5056044;28;20412;-77
2023/12/07 13:02:04;;;;;;;48.97;31.07;;;;;;;;;;5055630;28;20410;-77
2023/12/07 13:04:30;;;;;;;51.40;33.60;;;;;;;;;;5055885;28;20420;-77
2023/12/07 13:06:56;;;;;;;51.87;35.17;;;;;;;;;;5055885;28;20549;-77
2023/12/07 13:09:22;;;;;;;51.60;31.90;;;;;;;;;;5055815;28;20446;-77
2023/12/07 13:11:48;;;;;;;51.03;29.70;;;;;;;;;;5055638;28;20457;-77
2023/12/07 13:14:17;;;;;;;51.10;30.50;;;;;;;;;;5070975;28;20471;-78
2023/12/07 13:16:43;;;;;;;54.20;32.30;;;;;;;;;;5055201;28;20909;-77
2023/12/07 13:19:09;;;;;;;47.60;30.87;;;;;;;;;;5055456;28;20501;-78
2023/12/07 13:21:35;;;;;;;59.93;35.47;;;;;;;;;;5055272;28;20419;-77
2023/12/07 13:24:04;;;;;;;49.03;30.33;;;;;;;;;;5055025;28;20840;-77
2023/12/07 13:26:30;;;;;;;48.77;30.07;;;;;;;;;;5055492;28;20473;-76
2023/12/07 13:28:56;;;;;;;47.73;29.13;;;;;;;;;;5055378;28;20465;-77
2023/12/07 13:31:22;;;;;;;49.30;30.73;;;;;;;;;;5055002;28;20501;-77
2023/12/07 13:33:48;;;;;;;56.03;32.07;;;;;;;;;;5006074;28;20441;-76
2023/12/07 13:36:17;;;;;;;60.27;35.87;;;;;;;;;;5035313;28;20413;-77
2023/12/07 13:38:43;;;;;;;54.07;31.93;;;;;;;;;;5035262;28;20409;-76
2023/12/07 13:41:09;;;;;;;68.60;41.80;;;;;;;;;;5035346;28;20422;-77
2023/12/07 13:43:35;;;;;;;55.63;33.83;;;;;;;;;;5035222;28;20417;-77
2023/12/07 13:46:01;;;;;;;56.57;35.73;;;;;;;;;;5034741;28;20469;-77
2023/12/07 13:48:27;;;;;;;57.03;35.43;;;;;;;;;;5035252;28;20409;-77
2023/12/07 13:50:53;;;;;;;51.50;32.87;;;;;;;;;;5035222;28;20421;-77
2023/12/07 13:53:19;;;;;;;52.13;31.63;;;;;;;;;;5035112;28;20815;-78
2023/12/07 13:55:46;;;;;;;52.00;32.63;;;;;;;;;;5034989;28;20471;-78
2023/12/07 13:58:12;;;;;;;51.70;31.03;;;;;;;;;;5034816;28;20845;-77
2023/12/07 14:00:38;;;;;;;54.37;34.83;;;;;;;;;;5045580;28;20420;-78
2023/12/07 14:03:04;;;;;;;51.07;31.13;;;;;;;;;;5054840;28;20754;-78
2023/12/07 14:05:30;;;;;;;50.97;31.47;;;;;;;;;;5054703;28;20459;-75
2023/12/07 14:07:56;;;;;;;57.63;33.33;;;;;;;;;;5054404;28;20426;-76
2023/12/07 14:10:23;;;;;;;50.50;32.07;;;;;;;;;;5054500;28;20444;-76
2023/12/07 14:12:49;;;;;;;45.17;30.07;;;;;;;;;;5054450;28;20506;-76